Latest Weather Observations for Mandurah

IDW60901

Issued at 6:41 am WST Thursday 27 July 2017 (issued every 10 minutes, with the page automatically refreshed every 10 minutes)

About weather observations | Map of Perth area stations | Latest observations for Perth area | Other Formats
Station Details ID: 009977 Name: MANDURAH Lat: -32.52 Lon: 115.71 Height: 3.0 m
Data from the previous 72 hours. | See also: Recent months at Mandurah
Date/Time
WST
Temp
°C
App
Temp
°C
Dew
Point
°C
Rel
Hum
%
Delta-T
°C
Wind Press
QNH
hPa
Press
MSL
hPa
Rain since
9am
mm
Dir  Spd
km/h
Gust
km/h
Spd
kts
Gust
kts
27/06:30am 13.7 10.7 12.1 90 0.9 NNE 19 24 10 13 1015.7 1015.7 0.6
27/06:00am 13.7 10.7 12.1 90 0.9 NNE 19 24 10 13 1015.8 1015.8 0.6
27/05:30am 13.3 9.7 11.9 91 0.7 NE 22 26 12 14 1015.7 1015.7 0.6
27/05:00am 13.1 10.0 11.7 91 0.7 NNE 19 26 10 14 1016.1 1016.1 0.6
27/04:30am 12.8 9.9 11.0 89 0.9 NNE 17 22 9 12 1016.6 1016.6 0.6
27/04:00am 12.7 9.6 10.2 85 1.3 NE 17 22 9 12 1017.2 1017.2 0.6
27/03:30am 12.6 9.8 10.1 85 1.3 NE 15 17 8 9 1017.5 1017.5 0.6
27/03:00am 12.3 9.9 9.9 85 1.2 NE 13 17 7 9 1017.9 1017.9 0.6
27/02:30am 12.1 9.5 9.5 84 1.3 NE 13 17 7 9 1018.1 1018.1 0.6
27/02:00am 11.4 9.9 8.4 82 1.5 NE 6 11 3 6 1018.3 1018.3 0.6
27/01:30am 11.5 10.0 8.4 81 1.5 NE 6 9 3 5 1018.6 1018.6 0.6
27/01:00am 11.8 10.8 9.0 83 1.4 ENE 4 7 2 4 1018.8 1018.8 0.6
27/12:30am 11.8 10.7 9.9 88 1.0 ENE 6 9 3 5 1019.2 1019.2 0.6
27/12:00am 12.2 11.2 10.4 89 0.9 ENE 6 9 3 5 1019.5 1019.5 0.6
 
Date/Time
WST
Temp
°C
App
Temp
°C
Dew
Point
°C
Rel
Hum
%
Delta-T
°C
Wind Press
QNH
hPa
Press
MSL
hPa
Rain since
9am
mm
Dir  Spd
km/h
Gust
km/h
Spd
kts
Gust
kts
26/11:30pm 11.8 11.0 9.5 86 1.2 S 4 6 2 3 1020.0 1020.0 0.6
26/11:00pm 11.5 11.3 8.9 84 1.3 CALM 0 2 0 1 1020.1 1020.1 0.6
26/10:30pm 11.4 10.3 8.4 82 1.5 S 4 6 2 3 1020.3 1020.3 0.6
26/10:00pm 12.0 11.3 8.5 79 1.7 S 2 4 1 2 1020.2 1020.2 0.6
26/09:30pm 12.5 12.1 8.2 75 2.1 CALM 0 0 0 0 1020.2 1020.2 0.6
26/09:00pm 13.0 12.5 7.9 71 2.5 CALM 0 0 0 0 1019.9 1019.9 0.6
26/08:30pm 13.8 12.6 8.2 69 2.8 SSW 4 6 2 3 1019.8 1019.8 0.6
26/08:00pm 14.0 12.9 8.4 69 2.8 SSW 4 6 2 3 1019.9 1019.9 0.6
26/07:30pm 14.8 13.4 9.0 68 3.0 SSW 6 9 3 5 1019.8 1019.8 0.6
26/07:00pm 15.0 13.8 9.4 69 2.9 SSW 6 11 3 6 1019.6 1019.6 0.6
26/06:30pm 15.6 14.2 9.7 68 3.1 SSW 7 13 4 7 1019.4 1019.4 0.6
26/06:00pm 15.7 14.5 10.2 70 2.9 SW 7 13 4 7 1018.9 1018.9 0.6
26/05:30pm 16.0 15.1 10.5 70 2.9 SW 6 9 3 5 1018.7 1018.7 0.6
26/05:00pm 16.4 14.9 10.5 68 3.1 SW 9 13 5 7 1018.5 1018.5 0.6
26/04:30pm 16.7 15.4 11.2 70 3.0 SSW 9 15 5 8 1018.3 1018.3 0.6
26/04:00pm 16.8 15.1 11.3 70 3.0 SSW 11 22 6 12 1017.8 1017.8 0.6
26/03:30pm 16.2 15.3 12.7 80 1.9 SW 9 15 5 8 1017.7 1017.7 0.6
26/03:00pm 15.4 13.3 12.5 83 1.6 SW 15 28 8 15 1017.6 1017.6 0.6
26/02:30pm 17.0 13.7 11.7 71 2.9 SW 20 32 11 17 1017.2 1017.2 0.4
26/02:00pm 17.4 15.2 12.1 71 2.9 SW 15 24 8 13 1016.8 1016.8 0.4
26/01:30pm 18.1 16.2 13.0 72 2.9 SW 15 22 8 12 1016.7 1016.7 0.4
26/01:00pm 18.1 15.4 13.0 72 2.9 SW 19 32 10 17 1016.8 1016.8 0.4
26/12:30pm 19.2 16.2 12.7 66 3.6 WSW 20 30 11 16 1016.9 1016.9 0.4
26/12:00pm 18.3 14.9 12.5 69 3.2 WSW 22 35 12 19 1017.2 1017.2 0.4
26/11:30am 18.5 15.5 13.6 73 2.8 W 22 30 12 16 1017.1 1017.1 0.4
26/11:00am 17.9 15.3 13.8 77 2.3 W 20 30 11 16 1017.1 1017.1 0.4
26/10:30am 17.1 14.5 13.8 81 1.9 W 20 26 11 14 1017.0 1017.0 0.4
26/10:00am 15.8 13.3 13.5 86 1.3 W 19 28 10 15 1017.0 1017.0 0.4
26/09:30am 16.0 12.5 13.3 84 1.5 W 24 37 13 20 1017.0 1017.0 0.0
26/09:00am 18.2 12.9 14.1 77 2.3 WNW 35 52 19 28 1016.1 1016.1 3.0
26/08:30am 18.1 13.3 14.6 80 2.0 NW 33 46 18 25 1015.9 1015.9 3.0
26/08:06am 17.5 11.5 14.4 82 1.8 NW 39 57 21 31 1015.8 1015.8 2.8
26/08:00am 18.1 11.8 14.6 80 2.0 NW 41 50 22 27 1015.6 1015.6 2.6
26/07:30am 18.1 11.1 14.2 78 2.2 NW 44 54 24 29 1015.2 1015.2 2.6
26/07:00am 17.8 11.3 14.1 79 2.1 NW 41 52 22 28 1015.2 1015.2 2.6
26/06:30am 17.9 12.8 13.6 76 2.4 NW 33 39 18 21 1014.8 1014.8 2.2
26/06:00am 17.9 12.3 13.4 75 2.5 NW 35 43 19 23 1014.8 1014.8 2.2
26/05:30am 17.8 12.2 13.3 75 2.5 NW 35 46 19 25 1014.9 1014.9 2.2
26/05:00am 18.1 11.9 12.5 70 3.1 NW 37 46 20 25 1015.0 1015.0 2.2
26/04:30am 17.8 11.6 13.7 77 2.3 NW 39 48 21 26 1015.0 1015.0 2.2
26/04:00am 17.8 11.8 13.3 75 2.5 NW 37 48 20 26 1015.3 1015.3 2.2
26/03:30am 17.4 12.9 14.9 85 1.4 NW 32 39 17 21 1015.4 1015.4 2.2
26/03:00am 17.8 11.7 14.1 79 2.1 NW 39 46 21 25 1015.5 1015.5 2.2
26/02:30am 17.2 11.9 15.2 88 1.2 NW 37 48 20 26 1015.5 1015.5 2.2
26/02:00am 17.3 12.3 15.1 87 1.3 NW 35 43 19 23 1015.7 1015.7 1.6
26/01:37am 16.9 12.9 15.1 89 1.0 NW 30 52 16 28 1015.8 1015.8 1.6
26/01:30am 17.0 13.7 15.0 88 1.2 NNW 26 37 14 20 1015.9 1015.9 1.6
26/01:00am 17.5 12.7 14.0 80 2.0 NNW 32 37 17 20 1015.9 1015.9 1.4
26/12:30am 17.1 14.3 14.4 84 1.5 NNW 22 30 12 16 1016.5 1016.5 1.4
26/12:00am 17.3 13.6 13.8 80 2.0 NNW 26 37 14 20 1016.9 1016.9 1.4
 
Date/Time
WST
Temp
°C
App
Temp
°C
Dew
Point
°C
Rel
Hum
%
Delta-T
°C
Wind Press
QNH
hPa
Press
MSL
hPa
Rain since
9am
mm
Dir  Spd
km/h
Gust
km/h
Spd
kts
Gust
kts
25/11:30pm 17.6 12.9 13.1 75 2.5 NW 30 37 16 20 1017.0 1017.0 1.4
25/11:00pm 17.6 12.4 12.9 74 2.6 NNW 32 39 17 21 1017.2 1017.2 1.4
25/10:30pm 17.6 13.1 12.7 73 2.7 NNW 28 35 15 19 1017.6 1017.6 1.4
25/10:00pm 17.3 13.4 12.2 72 2.8 NNW 24 33 13 18 1017.9 1017.9 1.4
25/09:30pm 17.3 13.2 11.6 69 3.1 NNW 24 33 13 18 1018.0 1018.0 1.4
25/09:00pm 17.4 13.1 11.9 70 3.0 NNW 26 33 14 18 1018.2 1018.2 1.4
25/08:30pm 17.3 12.9 11.8 70 3.0 NNW 26 33 14 18 1018.3 1018.3 1.4
25/08:00pm 17.3 12.8 11.3 68 3.2 NNW 26 32 14 17 1018.3 1018.3 1.4
25/07:30pm 17.3 12.1 11.6 69 3.1 NNW 30 37 16 20 1018.5 1018.5 1.4
25/07:00pm 17.4 12.1 11.2 67 3.3 NNW 30 39 16 21 1018.6 1018.6 1.4
25/06:30pm 17.3 12.5 11.8 70 3.0 NW 28 37 15 20 1018.4 1018.4 1.4
25/06:00pm 17.2 12.0 11.7 70 3.0 NW 30 35 16 19 1018.2 1018.2 1.4
25/05:30pm 17.4 12.9 11.4 68 3.3 NW 26 33 14 18 1018.1 1018.1 1.4
25/05:00pm 17.6 12.1 11.9 69 3.1 NW 32 41 17 22 1018.2 1018.2 1.4
25/04:30pm 17.8 12.5 11.4 66 3.5 NW 30 35 16 19 1018.1 1018.1 1.4
25/04:00pm 17.8 12.9 12.5 71 2.9 NW 30 37 16 20 1018.2 1018.2 1.4
25/03:30pm 17.4 11.9 11.7 69 3.1 NW 32 39 17 21 1018.2 1018.2 1.4
25/03:00pm 16.5 14.0 15.2 92 0.8 NW 22 35 12 19 1018.3 1018.3 1.4
25/02:30pm 16.4 13.6 15.4 94 0.6 N 24 32 13 17 1018.5 1018.5 1.2
25/02:00pm 16.4 13.0 15.9 97 0.3 N 28 33 15 18 1018.4 1018.4 1.2
25/01:30pm 15.6 14.8 15.1 97 0.3 N 13 19 7 10 1018.8 1018.8 1.0
25/01:00pm 16.1 12.5 14.3 89 1.0 N 26 41 14 22 1019.0 1019.0 0.0
25/12:30pm 15.8 12.2 14.2 90 0.9 N 26 32 14 17 1019.5 1019.5 0.0
25/12:00pm 16.1 12.5 14.3 89 1.0 N 26 32 14 17 1019.4 1019.4 0.0
25/11:30am 15.9 12.6 13.9 88 1.1 N 24 28 13 15 1020.3 1020.3 0.0
25/11:00am 16.0 12.6 13.8 87 1.2 N 24 32 13 17 1020.6 1020.6 0.0
25/10:30am 15.9 13.2 14.6 92 0.7 N 22 26 12 14 1020.9 1020.9 0.0
25/10:00am 15.1 13.0 14.6 97 0.3 NNE 19 22 10 12 1020.6 1020.6 0.0
25/09:30am 14.1 11.5 13.9 99 0.1 NNE 20 24 11 13 1020.4 1020.4 0.0
25/09:00am 13.3 11.0 13.1 99 0.1 NNE 17 24 9 13 1020.4 1020.4 3.4
25/08:30am 13.1 11.2 12.9 99 0.1 NNE 15 20 8 11 1020.3 1020.3 3.4
25/08:00am 12.8 10.8 12.6 99 0.1 NE 15 19 8 10 1020.2 1020.2 3.4
25/07:30am 12.7 11.8 12.5 99 0.1 NE 9 13 5 7 1020.1 1020.1 3.4
25/07:00am 12.5 11.1 12.3 99 0.1 NE 11 15 6 8 1020.1 1020.1 3.4
25/06:30am 12.9 10.9 12.6 98 0.2 NNE 15 17 8 9 1019.5 1019.5 3.4
25/06:00am 12.8 11.1 12.3 97 0.3 NE 13 15 7 8 1019.1 1019.1 3.4
25/05:30am 12.9 11.2 12.3 96 0.3 NE 13 15 7 8 1019.1 1019.1 3.4
25/05:00am 12.8 11.6 11.7 93 0.6 NE 9 15 5 8 1019.3 1019.3 3.4
25/04:30am 13.2 12.5 11.4 89 1.0 ENE 6 11 3 6 1019.2 1019.2 3.4
25/04:00am 14.8 14.9 12.7 87 1.1 W 4 7 2 4 1019.1 1019.1 3.4
25/03:30am 15.4 14.5 13.8 90 0.9 NNW 11 17 6 9 1019.0 1019.0 3.4
25/03:00am 15.9 13.6 13.0 83 1.6 NW 17 24 9 13 1019.0 1019.0 3.4
25/02:30am 15.6 12.7 12.2 80 1.9 WNW 19 33 10 18 1019.0 1019.0 3.4
25/02:00am 16.3 14.2 12.5 78 2.1 WNW 15 20 8 11 1019.0 1019.0 3.4
25/01:30am 16.0 13.9 12.4 79 2.0 WNW 15 22 8 12 1019.2 1019.2 3.4
25/01:00am 15.7 14.0 11.3 75 2.4 WSW 11 17 6 9 1019.4 1019.4 3.4
25/12:30am 16.4 14.1 11.6 73 2.6 WNW 15 20 8 11 1019.3 1019.3 3.4
25/12:00am 16.2 13.4 11.4 73 2.6 WNW 17 24 9 13 1019.4 1019.4 3.4
 
Date/Time
WST
Temp
°C
App
Temp
°C
Dew
Point
°C
Rel
Hum
%
Delta-T
°C
Wind Press
QNH
hPa
Press
MSL
hPa
Rain since
9am
mm
Dir  Spd
km/h
Gust
km/h
Spd
kts
Gust
kts
24/11:30pm 16.1 13.1 10.8 71 2.8 W 17 22 9 12 1019.4 1019.4 3.4
24/11:00pm 15.8 13.0 11.2 74 2.5 WNW 17 20 9 11 1019.4 1019.4 3.4
24/10:30pm 14.9 14.0 11.5 80 1.8 W 7 13 4 7 1019.5 1019.5 3.4
24/10:00pm 15.3 14.4 11.5 78 2.0 WSW 7 13 4 7 1019.5 1019.5 3.4
24/09:30pm 15.4 13.8 11.4 77 2.1 WNW 11 15 6 8 1019.4 1019.4 3.4
24/09:00pm 14.3 13.2 10.7 79 1.9 W 7 17 4 9 1019.5 1019.5 3.4
24/08:30pm 14.4 11.0 10.6 78 2.0 W 19 26 10 14 1019.6 1019.6 3.4
24/08:00pm 14.8 12.5 11.6 81 1.7 W 15 28 8 15 1019.7 1019.7 3.4
24/07:30pm 14.2 13.4 9.8 75 2.3 SSW 4 6 2 3 1019.4 1019.4 2.4
24/07:00pm 14.8 11.9 9.8 72 2.6 WSW 15 32 8 17 1019.4 1019.4 2.4
24/06:30pm 15.4 13.5 8.9 65 3.3 WSW 9 17 5 9 1019.0 1019.0 2.4
24/06:00pm 16.1 13.5 9.3 64 3.5 W 13 24 7 13 1018.7 1018.7 2.4
24/05:30pm 15.8 13.2 9.2 65 3.4 WSW 13 20 7 11 1018.6 1018.6 2.4
24/05:00pm 16.6 13.7 9.5 63 3.7 W 15 22 8 12 1018.3 1018.3 2.4
24/04:30pm 16.5 12.9 10.4 67 3.2 W 20 28 11 15 1018.1 1018.1 2.4
24/04:00pm 16.8 13.3 10.9 68 3.2 W 20 33 11 18 1017.9 1017.9 2.4
24/03:30pm 16.3 12.8 11.0 71 2.8 WNW 20 35 11 19 1017.6 1017.6 2.4
24/03:00pm 16.1 14.5 11.5 74 2.5 WSW 11 19 6 10 1017.5 1017.5 2.4
24/02:30pm 16.0 13.6 11.4 74 2.5 W 15 20 8 11 1017.4 1017.4 2.4
24/02:00pm 16.0 13.5 12.4 79 2.0 WNW 17 22 9 12 1017.4 1017.4 2.4
24/01:30pm 15.1 13.2 13.1 88 1.1 WNW 15 26 8 14 1017.8 1017.8 2.4
24/01:00pm 14.7 14.3 13.1 90 0.9 SW 7 13 4 7 1017.8 1017.8 2.2
24/12:30pm 14.6 13.4 12.8 89 1.0 WSW 11 17 6 9 1018.5 1018.5 2.0
24/12:00pm 13.9 8.7 12.8 93 0.6 NW 32 41 17 22 1018.5 1018.5 2.0
24/11:38am 14.1 11.9 13.3 95 0.4 NNW 17 43 9 23 1018.8 1018.8 1.0
24/11:30am 14.4 13.8 13.4 94 0.6 N 9 13 5 7 1019.0 1019.0 0.2
24/11:00am 15.5 15.9 14.7 95 0.5 NE 6 7 3 4 1019.2 1019.2 0.2
24/10:30am 14.8 14.6 14.6 99 0.1 NNE 9 13 5 7 1019.4 1019.4 0.2
24/10:00am 13.9 13.9 13.6 98 0.2 NNE 6 9 3 5 1019.6 1019.6 0.0
24/09:30am 13.7 13.5 13.5 99 0.1 ENE 7 11 4 6 1019.3 1019.3 0.0
24/09:00am 12.7 11.8 12.5 99 0.1 NE 9 13 5 7 1019.4 1019.4 4.0
24/08:30am 12.6 12.0 12.4 99 0.1 ENE 7 13 4 7 1019.3 1019.3 4.0
24/08:00am 12.7 11.0 12.5 99 0.1 NNE 13 15 7 8 1019.2 1019.2 3.8
24/07:30am 12.9 11.2 12.4 97 0.3 NNE 13 17 7 9 1018.7 1018.7 2.8
24/07:00am 12.6 11.0 11.5 93 0.6 NE 11 13 6 7 1018.4 1018.4 1.8

Latest Capital City Observations: Canberra | Sydney | Melbourne | Brisbane | Adelaide | Perth | Hobart | Darwin

Other Formats:

Comma delimited format used in spreadsheet applications
http://www.bom.gov.au/fwo/IDW60901/IDW60901.94605.axf

JavaScript Object Notation format (JSON) in row-major order
http://www.bom.gov.au/fwo/IDW60901/IDW60901.94605.json